createdAt,value
2022-10-11T00:00:28.323Z,101103.91
2022-10-11T00:02:30.209Z,101112.22
2022-10-11T00:04:31.945Z,101103.59
2022-10-11T00:06:33.706Z,101105.97
2022-10-11T00:08:35.675Z,101106.28
2022-10-11T00:10:37.488Z,101096.53
2022-10-11T00:12:39.257Z,101114.81
2022-10-11T00:14:41.143Z,101116.09
2022-10-11T00:16:42.829Z,101108.56
2022-10-11T00:18:44.583Z,101117.47
2022-10-11T00:20:46.555Z,101109.06
2022-10-11T00:22:48.548Z,101093.28
2022-10-11T00:24:50.265Z,101112.28
2022-10-11T00:26:52.148Z,101107.84
2022-10-11T00:28:53.892Z,101104.34
2022-10-11T00:30:55.784Z,101100.16
2022-10-11T00:32:58.002Z,101100.53
2022-10-11T00:35:00.190Z,101090.31
2022-10-11T00:37:01.897Z,101100.06
2022-10-11T00:39:04.645Z,101099.94
2022-10-11T00:41:06.390Z,101099.44
2022-10-11T00:43:20.181Z,101094.00
2022-10-11T00:45:28.049Z,101084.78
2022-10-11T00:47:29.866Z,101085.94
2022-10-11T00:49:38.613Z,101073.25
2022-10-11T00:51:55.090Z,101096.84
2022-10-11T00:53:56.859Z,101096.00
2022-10-11T00:56:13.310Z,101097.09
2022-10-11T00:58:15.641Z,101091.13
2022-10-11T01:00:17.648Z,101084.78
2022-10-11T01:02:20.432Z,101094.88
2022-10-11T01:04:22.389Z,101091.22
2022-10-11T01:06:24.259Z,101100.59
2022-10-11T01:08:27.068Z,101096.59
2022-10-11T01:10:29.381Z,101097.97
2022-10-11T01:12:31.995Z,101095.94
2022-10-11T01:15:12.799Z,101096.72
2022-10-11T01:17:20.322Z,101089.31
2022-10-11T01:19:49.580Z,101089.69
2022-10-11T01:22:29.161Z,101084.69
2022-10-11T01:24:43.521Z,101097.25
2022-10-11T01:26:56.567Z,101099.50
2022-10-11T01:29:16.794Z,101095.03
2022-10-11T01:31:41.344Z,101094.59
2022-10-11T01:33:54.489Z,101095.94
2022-10-11T01:36:06.590Z,101097.75
2022-10-11T01:38:18.557Z,101087.28
2022-10-11T01:40:27.979Z,101093.41
2022-10-11T01:42:30.610Z,101097.47
2022-10-11T01:44:34.828Z,101095.41
2022-10-11T01:46:37.046Z,101105.75
2022-10-11T01:48:56.582Z,101095.81
2022-10-11T01:51:03.111Z,101088.16
2022-10-11T01:53:35.540Z,101101.72
2022-10-11T01:55:51.490Z,101103.94
2022-10-11T01:58:13.515Z,101105.44
2022-10-11T02:00:24.653Z,101095.66
2022-10-11T02:02:50.842Z,101098.16
2022-10-11T02:05:10.717Z,101088.06
2022-10-11T02:07:18.468Z,101090.66
2022-10-11T02:09:46.797Z,101091.88
2022-10-11T02:11:48.692Z,101101.13
2022-10-11T02:14:13.634Z,101088.16
2022-10-11T02:16:22.116Z,101092.53
2022-10-11T02:18:27.676Z,101088.47
2022-10-11T02:20:32.114Z,101090.41
2022-10-11T02:22:37.474Z,101099.91
2022-10-11T02:24:42.941Z,101092.72
2022-10-11T02:26:49.475Z,101099.69
2022-10-11T02:28:56.128Z,101100.34
2022-10-11T02:31:00.315Z,101083.34
2022-10-11T02:33:05.504Z,101098.69
2022-10-11T02:35:08.189Z,101105.34
2022-10-11T02:37:36.065Z,101110.41
2022-10-11T02:40:11.966Z,101105.38
2022-10-11T02:42:27.557Z,101106.50
2022-10-11T02:44:37.100Z,101105.53
2022-10-11T02:46:40.205Z,101097.59
2022-10-11T02:48:41.905Z,101104.00
2022-10-11T02:50:44.001Z,101098.84
2022-10-11T02:52:45.718Z,101104.50
2022-10-11T02:54:47.492Z,101106.66
2022-10-11T02:56:49.184Z,101105.00
2022-10-11T02:58:51.006Z,101107.38
2022-10-11T03:00:52.902Z,101107.50
2022-10-11T03:02:54.634Z,101113.03
2022-10-11T03:04:56.446Z,101070.16
2022-10-11T03:06:58.211Z,101110.25
2022-10-11T03:08:59.914Z,101106.78
2022-10-11T03:11:01.994Z,101109.66
2022-10-11T03:13:04.215Z,101128.25
2022-10-11T03:15:06.474Z,101130.38
2022-10-11T03:17:34.625Z,101140.34
2022-10-11T03:19:30.126Z,101137.22
2022-10-11T03:21:31.827Z,101131.69
2022-10-11T03:23:33.655Z,101132.06
2022-10-11T03:25:35.400Z,101139.88
2022-10-11T03:27:37.229Z,101127.59
2022-10-11T03:29:38.963Z,101145.63
2022-10-11T03:31:40.664Z,101154.03
2022-10-11T03:33:42.385Z,101151.16
2022-10-11T03:35:45.376Z,101147.53
2022-10-11T03:37:47.122Z,101148.50
2022-10-11T03:39:48.884Z,101158.81
2022-10-11T03:41:50.793Z,101152.28
2022-10-11T03:43:52.559Z,101143.53
2022-10-11T03:45:54.237Z,101155.06
2022-10-11T03:47:56.048Z,101162.72
2022-10-11T03:49:58.112Z,101173.56
2022-10-11T03:51:59.968Z,101175.88
2022-10-11T03:54:01.775Z,101170.75
2022-10-11T03:56:08.109Z,101171.69
2022-10-11T03:58:10.323Z,101165.22
2022-10-11T04:00:12.397Z,101166.22
2022-10-11T04:02:14.507Z,101161.53
2022-10-11T04:04:16.330Z,101170.91
2022-10-11T04:06:18.085Z,101172.25
2022-10-11T04:08:20.090Z,101162.16
2022-10-11T04:10:22.108Z,101165.91
2022-10-11T04:12:23.836Z,101172.28
2022-10-11T04:14:26.409Z,101172.66
2022-10-11T04:16:28.146Z,101181.03
2022-10-11T04:18:29.928Z,101179.97
2022-10-11T04:20:31.686Z,101183.34
2022-10-11T04:22:33.592Z,101189.84
2022-10-11T04:24:35.380Z,101186.84
2022-10-11T04:26:37.274Z,101194.63
2022-10-11T04:28:39.172Z,101191.63
2022-10-11T04:30:41.169Z,101189.13
2022-10-11T04:32:43.012Z,101190.56
2022-10-11T04:34:44.743Z,101198.25
2022-10-11T04:36:49.932Z,101192.75
2022-10-11T04:38:51.850Z,101190.69
2022-10-11T04:40:53.575Z,101187.94
2022-10-11T04:42:55.263Z,101205.00
2022-10-11T04:44:57.182Z,101197.06
2022-10-11T04:46:59.043Z,101200.81
2022-10-11T04:49:00.840Z,101213.91
2022-10-11T04:51:02.551Z,101210.91
2022-10-11T04:53:04.492Z,101212.94
2022-10-11T04:55:06.592Z,101216.13
2022-10-11T04:57:08.310Z,101218.16
2022-10-11T04:59:10.347Z,101217.81
2022-10-11T05:01:12.254Z,101221.75
2022-10-11T05:03:13.991Z,101224.66
2022-10-11T05:05:15.801Z,101231.38
2022-10-11T05:07:17.611Z,101223.81
2022-10-11T05:09:19.300Z,101231.03
2022-10-11T05:11:21.076Z,101241.81
2022-10-11T05:13:23.091Z,101243.00
2022-10-11T05:15:24.839Z,101241.66
2022-10-11T05:17:26.703Z,101249.81
2022-10-11T05:19:28.557Z,101253.88
2022-10-11T05:21:31.302Z,101256.88
2022-10-11T05:23:34.665Z,101258.38
2022-10-11T05:25:36.640Z,101268.59
2022-10-11T05:27:38.389Z,101266.50
2022-10-11T05:29:40.095Z,101270.44
2022-10-11T05:31:42.150Z,101262.66
2022-10-11T05:33:44.575Z,101266.34
2022-10-11T05:35:46.394Z,101264.94
2022-10-11T05:37:48.373Z,101271.69
2022-10-11T05:39:50.277Z,101278.41
2022-10-11T05:41:52.192Z,101284.81
2022-10-11T05:43:54.122Z,101295.53
2022-10-11T05:45:56.585Z,101300.41
2022-10-11T05:47:58.986Z,101298.59
2022-10-11T05:50:00.868Z,101300.50
2022-10-11T05:52:02.603Z,101302.06
2022-10-11T05:54:04.467Z,101303.38
2022-10-11T05:56:18.547Z,101310.63
2022-10-11T05:58:20.168Z,101316.03
2022-10-11T06:00:22.670Z,101324.84
2022-10-11T06:02:24.500Z,101324.06
2022-10-11T06:04:26.450Z,101323.22
2022-10-11T06:06:28.310Z,101329.09
2022-10-11T06:08:30.835Z,101335.56
2022-10-11T06:10:33.111Z,101336.00
2022-10-11T06:12:34.921Z,101335.88
2022-10-11T06:14:36.938Z,101346.34
2022-10-11T06:16:38.649Z,101343.88
2022-10-11T06:18:40.604Z,101348.91
2022-10-11T06:20:42.289Z,101344.97
2022-10-11T06:22:44.078Z,101352.53
2022-10-11T06:24:45.846Z,101345.56
2022-10-11T06:26:49.431Z,101358.53
2022-10-11T06:28:51.226Z,101362.22
2022-10-11T06:30:53.035Z,101371.31
2022-10-11T06:32:54.979Z,101370.94
2022-10-11T06:34:57.201Z,101366.88
2022-10-11T06:36:59.121Z,101376.28
2022-10-11T06:39:01.081Z,101384.88
2022-10-11T06:41:24.055Z,101389.78
2022-10-11T06:43:25.835Z,101391.88
2022-10-11T06:45:27.826Z,101395.34
2022-10-11T06:47:29.528Z,101398.44
2022-10-11T06:49:31.369Z,101401.66
2022-10-11T06:51:33.230Z,101406.28
2022-10-11T06:53:34.915Z,101407.09
2022-10-11T06:55:36.703Z,101411.84
2022-10-11T06:57:38.596Z,101405.47
2022-10-11T06:59:40.343Z,101407.59
2022-10-11T07:01:42.759Z,101412.22
2022-10-11T07:03:45.582Z,101415.34
2022-10-11T07:05:47.283Z,101412.13
2022-10-11T07:07:48.978Z,101420.94
2022-10-11T07:09:50.852Z,101420.50
2022-10-11T07:11:52.525Z,101422.06
2022-10-11T07:13:56.758Z,101436.31
2022-10-11T07:16:02.100Z,101431.94
2022-10-11T07:18:04.518Z,101422.88
2022-10-11T07:20:07.426Z,101435.34
2022-10-11T07:22:09.179Z,101445.06
2022-10-11T07:24:10.882Z,101448.53
2022-10-11T07:26:12.777Z,101451.88
2022-10-11T07:28:14.781Z,101453.63
2022-10-11T07:30:16.555Z,101448.91
2022-10-11T07:32:18.306Z,101449.63
2022-10-11T07:34:20.123Z,101453.41
2022-10-11T07:36:23.479Z,101456.50
2022-10-11T07:38:25.725Z,101461.25
2022-10-11T07:40:27.876Z,101463.63
2022-10-11T07:42:29.588Z,101468.25
2022-10-11T07:44:31.744Z,101475.47
2022-10-11T07:46:33.595Z,101474.34
2022-10-11T07:48:36.459Z,101479.56
2022-10-11T07:50:38.443Z,101485.06
2022-10-11T07:52:40.180Z,101484.78
2022-10-11T07:54:41.895Z,101493.28
2022-10-11T07:56:43.821Z,101486.16
2022-10-11T07:58:50.315Z,101493.44
2022-10-11T08:00:54.898Z,101501.44
2022-10-11T08:02:56.742Z,101494.72
2022-10-11T08:04:58.644Z,101505.78
2022-10-11T08:07:00.347Z,101505.34
2022-10-11T08:09:02.891Z,101498.22
2022-10-11T08:11:05.230Z,101500.31
2022-10-11T08:13:07.331Z,101501.44
2022-10-11T08:15:09.447Z,101511.91
2022-10-11T08:17:11.160Z,101512.06
2022-10-11T08:19:12.900Z,101516.16
2022-10-11T08:21:16.757Z,101517.41
2022-10-11T08:23:20.030Z,101523.69
2022-10-11T08:25:21.700Z,101520.50
2022-10-11T08:27:23.610Z,101521.75
2022-10-11T08:29:25.324Z,101517.53
2022-10-11T08:31:35.046Z,101525.78
2022-10-11T08:33:36.873Z,101540.91
2022-10-11T08:35:38.670Z,101528.31
2022-10-11T08:37:40.368Z,101532.19
2022-10-11T08:39:42.073Z,101540.69
2022-10-11T08:42:17.284Z,101535.84
2022-10-11T08:45:12.859Z,101539.47
2022-10-11T08:47:14.686Z,101539.38
2022-10-11T08:49:19.502Z,101545.00
2022-10-11T08:51:27.642Z,101550.38
2022-10-11T08:54:06.352Z,101547.69
2022-10-11T08:56:13.002Z,101550.84
2022-10-11T08:58:20.971Z,101550.31
2022-10-11T09:00:24.526Z,101556.16
2022-10-11T09:02:55.795Z,101557.25
2022-10-11T09:04:56.971Z,101554.88
2022-10-11T09:07:19.107Z,101557.41
2022-10-11T09:10:14.588Z,101561.19
2022-10-11T09:12:29.502Z,101561.88
2022-10-11T09:15:11.804Z,101564.72
2022-10-11T09:17:24.070Z,101570.25
2022-10-11T09:20:01.909Z,101571.88
2022-10-11T09:22:45.950Z,101572.63
2022-10-11T09:24:47.817Z,101584.69
2022-10-11T09:26:57.045Z,101583.88
2022-10-11T09:29:17.185Z,101578.84
2022-10-11T09:31:19.120Z,101581.69
2022-10-11T09:33:34.363Z,101576.72
2022-10-11T09:35:41.060Z,101582.75
2022-10-11T09:38:04.851Z,101578.94
2022-10-11T09:40:22.082Z,101590.59
2022-10-11T09:42:24.154Z,101587.63
2022-10-11T09:44:29.006Z,101575.38
2022-10-11T09:46:57.698Z,101588.81
2022-10-11T09:49:03.158Z,101588.25
2022-10-11T09:51:25.851Z,101595.50
2022-10-11T09:53:57.983Z,101589.97
2022-10-11T09:56:05.122Z,101595.03
2022-10-11T09:58:33.371Z,101600.41
2022-10-11T10:00:35.157Z,101594.78
2022-10-11T10:02:45.193Z,101597.53
2022-10-11T10:04:58.726Z,101597.88
2022-10-11T10:07:11.829Z,101600.59
2022-10-11T10:09:26.170Z,101595.19
2022-10-11T10:11:36.813Z,101596.53
2022-10-11T10:13:43.887Z,101592.75
2022-10-11T10:15:48.356Z,101601.59
2022-10-11T10:17:51.989Z,101602.94
2022-10-11T10:19:54.825Z,101597.97
2022-10-11T10:21:57.593Z,101593.56
2022-10-11T10:24:05.114Z,101599.50
2022-10-11T10:26:26.476Z,101593.56
2022-10-11T10:28:28.498Z,101607.59
2022-10-11T10:30:35.192Z,101560.66
2022-10-11T10:32:48.658Z,101610.50
2022-10-11T10:35:13.960Z,101615.94
2022-10-11T10:37:25.261Z,101618.16
2022-10-11T10:39:42.889Z,101616.09
2022-10-11T10:41:45.068Z,101619.41
2022-10-11T10:43:53.123Z,101610.09
2022-10-11T10:46:20.232Z,101626.28
2022-10-11T10:49:02.052Z,101625.44
2022-10-11T10:51:10.559Z,101630.47
2022-10-11T10:53:12.345Z,101624.69
2022-10-11T10:55:34.443Z,101615.31
2022-10-11T10:58:08.078Z,101632.59
2022-10-11T11:00:21.155Z,101631.66
2022-10-11T11:02:50.544Z,101633.28
2022-10-11T11:05:06.668Z,101628.38
2022-10-11T11:07:22.041Z,101632.56
2022-10-11T11:09:55.418Z,101631.28
2022-10-11T11:12:22.703Z,101632.69
2022-10-11T11:14:58.310Z,101631.03
2022-10-11T11:17:06.229Z,101634.38
2022-10-11T11:19:44.990Z,101634.94
2022-10-11T11:22:20.345Z,101635.78
2022-10-11T11:24:28.072Z,101634.97
2022-10-11T11:26:44.210Z,101627.09
2022-10-11T11:29:03.535Z,101636.56
2022-10-11T11:31:11.121Z,101646.34
2022-10-11T11:33:27.209Z,101646.88
2022-10-11T11:35:43.917Z,101635.66
2022-10-11T11:37:48.698Z,101643.34
2022-10-11T11:39:54.260Z,101651.44
2022-10-11T11:42:01.357Z,101648.56
2022-10-11T11:44:25.020Z,101642.38
2022-10-11T11:46:41.621Z,101648.66
2022-10-11T11:48:44.741Z,101649.94
2022-10-11T11:50:57.394Z,101647.75
2022-10-11T11:53:12.247Z,101650.78
2022-10-11T11:55:31.147Z,101652.72
2022-10-11T11:57:49.009Z,101655.66
2022-10-11T11:59:53.354Z,101648.22
2022-10-11T12:01:55.466Z,101653.59
2022-10-11T12:04:03.114Z,101656.97
2022-10-11T12:06:13.840Z,101655.84
2022-10-11T12:08:28.635Z,101651.75
2022-10-11T12:10:38.108Z,101636.56
2022-10-11T12:12:39.976Z,101652.16
2022-10-11T12:14:42.505Z,101655.75
2022-10-11T12:17:16.560Z,101663.56
2022-10-11T12:19:20.343Z,101663.09
2022-10-11T12:21:34.446Z,101663.72
2022-10-11T12:23:40.212Z,101656.22
2022-10-11T12:25:43.464Z,101659.00
2022-10-11T12:27:51.032Z,101665.19
2022-10-11T12:29:52.769Z,101660.06
2022-10-11T12:32:00.475Z,101661.66
2022-10-11T12:34:02.310Z,101659.09
2022-10-11T12:36:31.703Z,101661.69
2022-10-11T12:38:36.173Z,101650.78
2022-10-11T12:40:40.773Z,101662.91
2022-10-11T12:43:14.312Z,101660.19
2022-10-11T12:45:18.901Z,101658.69
2022-10-11T12:47:40.620Z,101664.34
2022-10-11T12:50:03.826Z,101662.13
2022-10-11T12:52:17.898Z,101664.97
2022-10-11T12:54:29.019Z,101663.00
2022-10-11T12:56:54.574Z,101673.19
2022-10-11T12:59:05.213Z,101670.50
2022-10-11T13:01:10.001Z,101670.00
2022-10-11T13:03:35.130Z,101680.63
2022-10-11T13:05:45.192Z,101673.09
2022-10-11T13:07:48.210Z,101673.13
2022-10-11T13:09:53.898Z,101675.34
2022-10-11T13:12:09.730Z,101678.06
2022-10-11T13:14:23.143Z,101672.00
2022-10-11T13:16:28.703Z,101670.44
2022-10-11T13:18:30.525Z,101679.00
2022-10-11T13:20:37.627Z,101676.75
2022-10-11T13:22:42.164Z,101679.38
2022-10-11T13:24:44.131Z,101677.91
2022-10-11T13:26:49.407Z,101673.53
2022-10-11T13:28:51.271Z,101671.28
2022-10-11T13:30:56.205Z,101666.53
2022-10-11T13:33:00.208Z,101672.50
2022-10-11T13:35:04.882Z,101670.03
2022-10-11T13:37:12.350Z,101665.09
2022-10-11T13:39:31.002Z,101677.66
2022-10-11T13:41:33.574Z,101663.88
2022-10-11T13:43:36.534Z,101674.28
2022-10-11T13:45:38.859Z,101672.91
2022-10-11T13:47:40.710Z,101676.97
2022-10-11T13:49:48.099Z,101667.16
2022-10-11T13:52:02.042Z,101681.19
2022-10-11T13:54:13.085Z,101682.91
2022-10-11T13:56:19.419Z,101676.31
2022-10-11T13:58:30.208Z,101675.69
2022-10-11T14:00:35.039Z,101674.09
2022-10-11T14:02:37.964Z,101679.66
2022-10-11T14:04:41.748Z,101681.63
2022-10-11T14:06:49.119Z,101684.59
2022-10-11T14:08:56.618Z,101685.06
2022-10-11T14:11:05.101Z,101668.34
2022-10-11T14:13:29.681Z,101685.00
2022-10-11T14:15:40.548Z,101669.22
2022-10-11T14:17:44.911Z,101687.72
2022-10-11T14:20:07.328Z,101687.84
2022-10-11T14:22:18.457Z,101683.00
2022-10-11T14:24:21.317Z,101689.56
2022-10-11T14:26:24.647Z,101678.75
2022-10-11T14:28:26.842Z,101684.88
2022-10-11T14:30:29.464Z,101689.47
2022-10-11T14:32:34.092Z,101688.00
2022-10-11T14:34:35.853Z,101689.09
2022-10-11T14:36:37.811Z,101692.97
2022-10-11T14:38:39.520Z,101684.97
2022-10-11T14:40:41.356Z,101690.31
2022-10-11T14:42:43.387Z,101685.53
2022-10-11T14:44:45.188Z,101675.16
2022-10-11T14:46:48.645Z,101698.53
2022-10-11T14:48:55.342Z,101697.72
2022-10-11T14:51:03.779Z,101695.78
2022-10-11T14:53:07.124Z,101703.91
2022-10-11T14:55:08.997Z,101697.19
2022-10-11T14:57:12.943Z,101708.00
2022-10-11T14:59:17.325Z,101711.50
2022-10-11T15:01:19.192Z,101706.84
2022-10-11T15:03:20.974Z,101704.53
2022-10-11T15:05:29.832Z,101705.16
2022-10-11T15:07:34.562Z,101709.81
2022-10-11T15:09:36.332Z,101702.47
2022-10-11T15:11:38.723Z,101719.28
2022-10-11T15:13:40.486Z,101714.38
2022-10-11T15:15:42.255Z,101713.94
2022-10-11T15:17:44.042Z,101710.16
2022-10-11T15:19:45.897Z,101721.22
2022-10-11T15:21:48.515Z,101718.50
2022-10-11T15:23:51.803Z,101716.09
2022-10-11T15:25:53.811Z,101716.09
2022-10-11T15:27:56.578Z,101720.25
2022-10-11T15:29:58.317Z,101721.22
2022-10-11T15:32:00.125Z,101719.75
2022-10-11T15:34:01.915Z,101722.22
2022-10-11T15:36:04.819Z,101722.06
2022-10-11T15:38:06.845Z,101724.56
2022-10-11T15:40:22.326Z,101725.97
2022-10-11T15:42:24.112Z,101732.44
2022-10-11T15:44:26.388Z,101734.34
2022-10-11T15:46:28.074Z,101730.84
2022-10-11T15:48:30.087Z,101736.78
2022-10-11T15:50:34.835Z,101744.53
2022-10-11T15:52:36.572Z,101742.75
2022-10-11T15:54:38.264Z,101744.94
2022-10-11T15:56:40.178Z,101742.97
2022-10-11T15:58:42.558Z,101753.16
2022-10-11T16:00:46.436Z,101748.94
2022-10-11T16:02:48.241Z,101751.25
2022-10-11T16:04:50.036Z,101763.94
2022-10-11T16:06:51.748Z,101762.88
2022-10-11T16:08:53.672Z,101775.84
2022-10-11T16:10:55.398Z,101770.44
2022-10-11T16:12:57.216Z,101764.69
2022-10-11T16:14:59.089Z,101780.19
2022-10-11T16:17:03.534Z,101775.00
2022-10-11T16:19:05.253Z,101778.78
2022-10-11T16:21:13.216Z,101783.25
2022-10-11T16:23:15.558Z,101771.72
2022-10-11T16:25:18.466Z,101781.22
2022-10-11T16:27:20.361Z,101790.25
2022-10-11T16:29:22.117Z,101786.25
2022-10-11T16:31:23.962Z,101781.03
2022-10-11T16:33:26.726Z,101786.34
2022-10-11T16:35:32.364Z,101793.03
2022-10-11T16:37:35.340Z,101793.78
2022-10-11T16:39:37.218Z,101796.16
2022-10-11T16:41:39.556Z,101789.50
2022-10-11T16:43:41.245Z,101791.38
2022-10-11T16:45:43.127Z,101789.19
2022-10-11T16:47:44.993Z,101794.22
2022-10-11T16:49:46.924Z,101798.25
2022-10-11T16:51:49.660Z,101789.31
2022-10-11T16:53:52.547Z,101800.22
2022-10-11T16:55:54.278Z,101799.94
2022-10-11T16:57:56.085Z,101796.69
2022-10-11T16:59:58.058Z,101801.53
2022-10-11T17:01:59.772Z,101796.50
2022-10-11T17:04:01.748Z,101796.81
2022-10-11T17:06:04.536Z,101801.69
2022-10-11T17:08:06.587Z,101804.59
2022-10-11T17:10:08.707Z,101806.09
2022-10-11T17:12:12.032Z,101800.06
2022-10-11T17:14:14.181Z,101807.56
2022-10-11T17:16:17.340Z,101812.66
2022-10-11T17:18:19.150Z,101815.69
2022-10-11T17:20:20.837Z,101811.47
2022-10-11T17:22:22.617Z,101812.63
2022-10-11T17:24:24.774Z,101817.06
2022-10-11T17:26:27.481Z,101802.69
2022-10-11T17:28:31.602Z,101819.06
2022-10-11T17:30:33.428Z,101817.38
2022-10-11T17:32:35.418Z,101811.66
2022-10-11T17:34:37.317Z,101810.19
2022-10-11T17:36:40.051Z,101815.78
2022-10-11T17:38:41.766Z,101806.25
2022-10-11T17:40:43.596Z,101814.84
2022-10-11T17:42:45.348Z,101823.91
2022-10-11T17:44:47.348Z,101820.84
2022-10-11T17:46:49.432Z,101820.19
2022-10-11T17:48:53.277Z,101824.09
2022-10-11T17:50:55.321Z,101820.81
2022-10-11T17:52:57.187Z,101820.16
2022-10-11T17:54:58.881Z,101827.44
2022-10-11T17:57:00.756Z,101825.44
2022-10-11T17:59:02.738Z,101825.81
2022-10-11T18:01:07.050Z,101821.88
2022-10-11T18:03:09.186Z,101807.59
2022-10-11T18:05:10.946Z,101822.06
2022-10-11T18:07:12.616Z,101829.88
2022-10-11T18:09:17.011Z,101830.09
2022-10-11T18:11:20.780Z,101826.81
2022-10-11T18:13:22.487Z,101834.81
2022-10-11T18:15:24.334Z,101827.13
2022-10-11T18:17:26.091Z,101827.97
2022-10-11T18:19:27.878Z,101831.66
2022-10-11T18:21:33.901Z,101831.84
2022-10-11T18:23:36.711Z,101835.72
2022-10-11T18:25:38.434Z,101833.34
2022-10-11T18:27:40.148Z,101833.56
2022-10-11T18:29:42.023Z,101838.00
2022-10-11T18:31:43.748Z,101833.97
2022-10-11T18:33:46.467Z,101837.56
2022-10-11T18:35:48.293Z,101837.91
2022-10-11T18:37:50.694Z,101831.06
2022-10-11T18:39:52.547Z,101833.53
2022-10-11T18:41:54.330Z,101836.06
2022-10-11T18:43:57.404Z,101837.84
2022-10-11T18:46:15.167Z,101836.47
2022-10-11T18:48:17.018Z,101833.06
2022-10-11T18:50:20.174Z,101840.22
2022-10-11T18:52:21.911Z,101837.78
2022-10-11T18:54:23.710Z,101844.19
2022-10-11T18:56:27.161Z,101844.34
2022-10-11T18:58:34.630Z,101842.00
2022-10-11T19:00:41.167Z,101843.44
2022-10-11T19:02:43.266Z,101847.00
2022-10-11T19:04:45.053Z,101847.19
2022-10-11T19:06:48.851Z,101848.88
2022-10-11T19:08:54.017Z,101845.50
2022-10-11T19:10:55.706Z,101843.13
2022-10-11T19:12:57.566Z,101850.19
2022-10-11T19:14:59.275Z,101848.63
2022-10-11T19:17:00.962Z,101850.19
2022-10-11T19:19:02.838Z,101852.25
2022-10-11T19:21:07.496Z,101855.84
2022-10-11T19:23:09.582Z,101858.19
2022-10-11T19:25:11.568Z,101860.72
2022-10-11T19:27:13.264Z,101865.16
2022-10-11T19:29:18.056Z,101861.66
2022-10-11T19:31:21.077Z,101854.97
2022-10-11T19:33:22.777Z,101861.19
2022-10-11T19:35:24.500Z,101851.09
2022-10-11T19:37:26.384Z,101865.38
2022-10-11T19:39:28.851Z,101867.28
2022-10-11T19:41:30.551Z,101868.47
2022-10-11T19:43:32.911Z,101868.47
2022-10-11T19:45:35.608Z,101874.03
2022-10-11T19:47:37.301Z,101873.38
2022-10-11T19:49:39.508Z,101870.75
2022-10-11T19:51:41.589Z,101866.69
2022-10-11T19:53:43.790Z,101863.38
2022-10-11T19:55:46.553Z,101875.53
2022-10-11T19:57:48.456Z,101875.44
2022-10-11T19:59:50.141Z,101876.38
2022-10-11T20:01:53.280Z,101873.91
2022-10-11T20:04:00.653Z,101875.97
2022-10-11T20:06:04.118Z,101881.25
2022-10-11T20:08:05.858Z,101874.63
2022-10-11T20:10:07.806Z,101877.28
2022-10-11T20:12:09.491Z,101878.28
2022-10-11T20:14:11.534Z,101883.53
2022-10-11T20:16:18.333Z,101873.22
2022-10-11T20:18:20.009Z,101870.19
2022-10-11T20:20:21.954Z,101877.88
2022-10-11T20:22:23.622Z,101886.03
2022-10-11T20:24:25.407Z,101884.50
2022-10-11T20:26:29.205Z,101885.53
2022-10-11T20:28:32.369Z,101887.84
2022-10-11T20:30:34.118Z,101885.88
2022-10-11T20:32:36.114Z,101880.94
2022-10-11T20:34:37.783Z,101873.50
2022-10-11T20:36:39.495Z,101879.34
2022-10-11T20:38:43.583Z,101887.22
2022-10-11T20:40:45.261Z,101882.31
2022-10-11T20:42:46.966Z,101887.56
2022-10-11T20:44:48.954Z,101888.59
2022-10-11T20:46:50.645Z,101872.72
2022-10-11T20:49:00.445Z,101890.91
2022-10-11T20:51:03.846Z,101893.53
2022-10-11T20:53:05.585Z,101886.56
2022-10-11T20:55:07.622Z,101891.81
2022-10-11T20:57:09.606Z,101893.69
2022-10-11T20:59:11.329Z,101895.38
2022-10-11T21:01:18.149Z,101893.00
2022-10-11T21:03:20.470Z,101892.47
2022-10-11T21:05:22.179Z,101884.41
2022-10-11T21:07:23.908Z,101891.03
2022-10-11T21:09:26.056Z,101887.56
2022-10-11T21:11:29.873Z,101868.13
2022-10-11T21:13:31.858Z,101888.34
2022-10-11T21:15:34.040Z,101889.34
2022-10-11T21:17:35.719Z,101881.59
2022-10-11T21:19:37.403Z,101889.59
2022-10-11T21:21:39.248Z,101888.19
2022-10-11T21:23:41.880Z,101898.63
2022-10-11T21:25:43.622Z,101895.00
2022-10-11T21:27:45.428Z,101895.25
2022-10-11T21:29:47.101Z,101889.38
2022-10-11T21:31:48.867Z,101887.63
2022-10-11T21:33:51.194Z,101889.16
2022-10-11T21:35:52.879Z,101899.69
2022-10-11T21:37:56.151Z,101897.19
2022-10-11T21:39:58.224Z,101898.91
2022-10-11T21:41:59.941Z,101898.91
2022-10-11T21:44:01.687Z,101898.06
2022-10-11T21:46:16.321Z,101896.41
2022-10-11T21:48:18.022Z,101904.94
2022-10-11T21:50:19.743Z,101904.16
2022-10-11T21:52:22.129Z,101902.78
2022-10-11T21:54:23.843Z,101910.91
2022-10-11T21:56:26.002Z,101906.56
2022-10-11T21:58:28.929Z,101914.56
2022-10-11T22:00:30.601Z,101890.69
2022-10-11T22:02:32.502Z,101910.38
2022-10-11T22:04:34.968Z,101904.13
2022-10-11T22:06:37.802Z,101908.69
2022-10-11T22:08:40.020Z,101906.31
2022-10-11T22:10:51.841Z,101901.34
2022-10-11T22:12:53.555Z,101911.78
2022-10-11T22:14:55.281Z,101904.22
2022-10-11T22:16:57.398Z,101902.53
2022-10-11T22:18:59.375Z,101906.06
2022-10-11T22:21:13.163Z,101900.03
2022-10-11T22:23:15.229Z,101894.50
2022-10-11T22:25:16.951Z,101916.31
2022-10-11T22:27:18.697Z,101887.09
2022-10-11T22:29:20.451Z,101908.88
2022-10-11T22:31:23.180Z,101912.75
2022-10-11T22:33:25.030Z,101911.06
2022-10-11T22:35:26.919Z,101906.78
2022-10-11T22:37:28.744Z,101908.56
2022-10-11T22:39:30.525Z,101908.81
2022-10-11T22:41:32.228Z,101915.97
2022-10-11T22:43:34.514Z,101916.97
2022-10-11T22:45:36.238Z,101919.44
2022-10-11T22:47:38.690Z,101919.69
2022-10-11T22:49:40.614Z,101923.06
2022-10-11T22:51:42.302Z,101921.47
2022-10-11T22:53:44.019Z,101914.78
2022-10-11T22:55:45.727Z,101925.22
2022-10-11T22:57:47.452Z,101919.19
2022-10-11T22:59:49.159Z,101927.16
2022-10-11T23:01:50.850Z,101923.16
2022-10-11T23:03:53.107Z,101925.28
2022-10-11T23:05:58.470Z,101920.38
2022-10-11T23:08:00.255Z,101925.16
2022-10-11T23:10:02.037Z,101924.66
2022-10-11T23:12:03.971Z,101925.63
2022-10-11T23:14:05.782Z,101928.13
2022-10-11T23:16:09.553Z,101928.19
2022-10-11T23:18:11.561Z,101906.25
2022-10-11T23:20:13.432Z,101925.31
2022-10-11T23:22:15.533Z,101930.50
2022-10-11T23:24:17.197Z,101934.59
2022-10-11T23:26:19.273Z,101933.03
2022-10-11T23:28:20.985Z,101925.38
2022-10-11T23:30:22.797Z,101931.19
2022-10-11T23:32:25.162Z,101931.06
2022-10-11T23:34:26.889Z,101924.72
2022-10-11T23:36:28.741Z,101926.66
2022-10-11T23:38:30.710Z,101931.06
2022-10-11T23:40:32.402Z,101938.13
2022-10-11T23:42:34.291Z,101933.03
2022-10-11T23:44:35.970Z,101937.50
2022-10-11T23:46:37.664Z,101933.50
2022-10-11T23:48:39.719Z,101935.31
2022-10-11T23:50:42.443Z,101934.19
2022-10-11T23:52:44.142Z,101934.25
2022-10-11T23:54:45.993Z,101923.44